createdAt,value
2022-12-25T00:01:15.929Z,70.19
2022-12-25T00:03:42.918Z,70.14
2022-12-25T00:06:09.924Z,70.52
2022-12-25T00:08:38.504Z,70.44
2022-12-25T00:11:08.464Z,70.44
2022-12-25T00:13:35.311Z,70.19
2022-12-25T00:16:07.730Z,70.48
2022-12-25T00:18:34.507Z,70.12
2022-12-25T00:21:04.436Z,70.64
2022-12-25T00:23:32.170Z,70.79
2022-12-25T00:25:59.020Z,70.08
2022-12-25T00:28:26.303Z,69.95
2022-12-25T00:30:53.157Z,70.57
2022-12-25T00:33:20.135Z,70.43
2022-12-25T00:35:58.452Z,70.71
2022-12-25T00:38:26.183Z,70.42
2022-12-25T00:40:53.127Z,70.37
2022-12-25T00:43:20.597Z,70.59
2022-12-25T00:46:04.423Z,70.57
2022-12-25T00:48:31.677Z,70.55
2022-12-25T00:51:01.246Z,70.58
2022-12-25T00:53:29.178Z,70.70
2022-12-25T00:56:03.102Z,70.16
2022-12-25T00:58:31.640Z,70.47
2022-12-25T01:00:58.928Z,70.26
2022-12-25T01:03:26.478Z,70.08
2022-12-25T01:05:59.085Z,70.06
2022-12-25T01:08:26.831Z,70.05
2022-12-25T01:10:58.984Z,70.22
2022-12-25T01:13:27.477Z,69.89
2022-12-25T01:15:54.572Z,69.22
2022-12-25T01:18:23.165Z,69.71
2022-12-25T01:20:49.894Z,69.46
2022-12-25T01:23:17.087Z,68.90
2022-12-25T01:25:43.887Z,69.13
2022-12-25T01:28:10.688Z,69.13
2022-12-25T01:30:37.637Z,69.25
2022-12-25T01:33:04.498Z,69.60
2022-12-25T01:35:31.267Z,69.34
2022-12-25T01:37:58.131Z,68.87
2022-12-25T01:40:24.988Z,69.06
2022-12-25T01:42:51.735Z,69.11
2022-12-25T01:45:27.638Z,69.97
2022-12-25T01:47:54.370Z,68.81
2022-12-25T01:50:21.617Z,69.00
2022-12-25T01:52:49.504Z,69.74
2022-12-25T01:55:16.980Z,69.40
2022-12-25T01:57:44.218Z,68.95
2022-12-25T02:00:11.840Z,70.13
2022-12-25T02:02:39.957Z,69.43
2022-12-25T02:05:26.161Z,69.30
2022-12-25T02:07:54.214Z,69.33
2022-12-25T02:10:21.210Z,69.19
2022-12-25T02:12:48.906Z,70.02
2022-12-25T02:15:19.715Z,69.50
2022-12-25T02:18:07.613Z,69.79
2022-12-25T02:20:55.096Z,69.99
2022-12-25T02:23:40.326Z,69.81
2022-12-25T02:26:32.667Z,69.48
2022-12-25T02:29:25.258Z,69.54
2022-12-25T02:32:01.381Z,69.11
2022-12-25T02:34:34.009Z,68.73
2022-12-25T02:37:09.499Z,68.67
2022-12-25T02:39:58.094Z,69.14
2022-12-25T02:42:47.666Z,69.22
2022-12-25T02:45:38.006Z,69.09
2022-12-25T02:48:25.137Z,68.81
2022-12-25T02:51:12.532Z,69.68
2022-12-25T02:54:00.047Z,69.30
2022-12-25T02:56:48.249Z,69.82
2022-12-25T02:59:36.249Z,70.12
2022-12-25T03:02:23.697Z,70.82
2022-12-25T03:05:11.569Z,69.94
2022-12-25T03:07:42.172Z,69.95
2022-12-25T03:10:28.391Z,69.89
2022-12-25T03:12:58.363Z,69.83
2022-12-25T03:15:44.876Z,70.06
2022-12-25T03:18:19.178Z,70.11
2022-12-25T03:21:04.729Z,70.29
2022-12-25T03:23:52.764Z,70.08
2022-12-25T03:26:43.008Z,70.09
2022-12-25T03:29:09.795Z,70.14
2022-12-25T03:31:43.894Z,70.32
2022-12-25T03:34:43.407Z,70.15
2022-12-25T03:37:34.707Z,70.59
2022-12-25T03:40:42.938Z,70.49
2022-12-25T03:43:43.410Z,70.03
2022-12-25T03:46:34.422Z,70.72
2022-12-25T03:49:30.685Z,70.16
2022-12-25T03:52:19.770Z,70.30
2022-12-25T03:55:08.339Z,70.21
2022-12-25T03:57:54.183Z,70.24
2022-12-25T04:00:39.542Z,70.17
2022-12-25T04:03:25.172Z,70.26
2022-12-25T04:06:10.506Z,70.21
2022-12-25T04:08:56.039Z,70.13
2022-12-25T04:11:41.306Z,70.13
2022-12-25T04:14:26.642Z,70.39
2022-12-25T04:17:12.191Z,70.17
2022-12-25T04:19:57.486Z,69.53
2022-12-25T04:22:42.756Z,69.93
2022-12-25T04:25:28.077Z,69.83
2022-12-25T04:28:18.937Z,70.02
2022-12-25T04:31:04.773Z,70.05
2022-12-25T04:33:50.227Z,70.22
2022-12-25T04:36:17.100Z,70.02
2022-12-25T04:38:44.028Z,69.81
2022-12-25T04:41:12.355Z,69.78
2022-12-25T04:43:39.382Z,69.84
2022-12-25T04:46:06.540Z,69.98
2022-12-25T04:48:35.285Z,69.74
2022-12-25T04:51:16.699Z,69.92
2022-12-25T04:53:44.117Z,70.83
2022-12-25T04:56:11.241Z,69.84
2022-12-25T04:58:38.467Z,70.22
2022-12-25T05:01:06.100Z,70.03
2022-12-25T05:03:34.059Z,69.46
2022-12-25T05:06:01.577Z,69.66
2022-12-25T05:08:30.411Z,70.20
2022-12-25T05:10:57.566Z,69.41
2022-12-25T05:13:24.900Z,69.89
2022-12-25T05:15:52.300Z,69.83
2022-12-25T05:18:19.078Z,69.63
2022-12-25T05:20:55.085Z,69.44
2022-12-25T05:23:22.628Z,69.07
2022-12-25T05:25:49.551Z,69.60
2022-12-25T05:28:16.613Z,69.28
2022-12-25T05:30:43.461Z,69.43
2022-12-25T05:33:10.354Z,69.19
2022-12-25T05:35:38.194Z,69.61
2022-12-25T05:38:06.656Z,69.05
2022-12-25T05:40:34.427Z,69.36
2022-12-25T05:43:01.232Z,69.20
2022-12-25T05:45:28.136Z,69.65
2022-12-25T05:47:54.987Z,69.79
2022-12-25T05:50:21.856Z,69.30
2022-12-25T05:52:48.794Z,69.42
2022-12-25T05:55:15.746Z,69.57
2022-12-25T05:57:42.569Z,70.12
2022-12-25T06:00:10.145Z,70.25
2022-12-25T06:02:39.445Z,69.82
2022-12-25T06:05:06.832Z,70.17
2022-12-25T06:07:33.656Z,69.91
2022-12-25T06:10:00.377Z,70.11
2022-12-25T06:12:27.117Z,70.02
2022-12-25T06:14:53.865Z,69.89
2022-12-25T06:17:20.731Z,70.27
2022-12-25T06:19:47.622Z,70.26
2022-12-25T06:22:14.447Z,70.01
2022-12-25T06:24:41.681Z,69.71
2022-12-25T06:27:08.771Z,70.24
2022-12-25T06:29:35.577Z,70.28
2022-12-25T06:32:02.542Z,70.26
2022-12-25T06:34:29.540Z,70.28
2022-12-25T06:36:56.426Z,70.21
2022-12-25T06:39:25.513Z,69.73
2022-12-25T06:41:52.395Z,69.50
2022-12-25T06:44:19.206Z,69.84
2022-12-25T06:46:45.863Z,69.95
2022-12-25T06:49:12.676Z,70.29
2022-12-25T06:51:39.631Z,70.08
2022-12-25T06:54:06.521Z,70.13
2022-12-25T06:56:34.115Z,69.87
2022-12-25T06:59:04.442Z,69.77
2022-12-25T07:01:48.292Z,69.89
2022-12-25T07:04:38.061Z,69.79
2022-12-25T07:07:09.310Z,69.79
2022-12-25T07:09:38.978Z,69.63
2022-12-25T07:12:21.312Z,69.71
2022-12-25T07:14:50.969Z,69.39
2022-12-25T07:17:18.663Z,70.03
2022-12-25T07:19:49.487Z,70.52
2022-12-25T07:22:16.479Z,70.49
2022-12-25T07:24:43.492Z,70.32
2022-12-25T07:27:10.355Z,70.11
2022-12-25T07:29:37.225Z,70.73
2022-12-25T07:32:04.493Z,70.28
2022-12-25T07:34:31.386Z,70.26
2022-12-25T07:36:58.230Z,70.39
2022-12-25T07:39:25.051Z,70.03
2022-12-25T07:41:51.948Z,69.98
2022-12-25T07:44:18.913Z,70.63
2022-12-25T07:46:46.017Z,70.61
2022-12-25T07:49:13.105Z,70.07
2022-12-25T07:51:40.018Z,70.26
2022-12-25T07:54:07.177Z,70.45
2022-12-25T07:56:33.979Z,70.26
2022-12-25T07:59:00.839Z,70.85
2022-12-25T08:01:28.196Z,70.77
2022-12-25T08:03:57.681Z,70.56
2022-12-25T08:06:29.759Z,70.07
2022-12-25T08:09:01.789Z,69.82
2022-12-25T08:11:28.924Z,70.12
2022-12-25T08:13:55.748Z,70.08
2022-12-25T08:16:22.807Z,69.60
2022-12-25T08:18:50.033Z,70.45
2022-12-25T08:21:17.351Z,69.87
2022-12-25T08:23:46.392Z,70.34
2022-12-25T08:26:20.494Z,70.25
2022-12-25T08:28:49.047Z,70.14
2022-12-25T08:31:17.848Z,70.29
2022-12-25T08:33:45.889Z,70.07
2022-12-25T08:36:13.438Z,70.07
2022-12-25T08:38:40.756Z,70.16
2022-12-25T08:41:09.916Z,69.94
2022-12-25T08:43:37.093Z,70.19
2022-12-25T08:46:04.190Z,69.93
2022-12-25T08:48:31.106Z,70.79
2022-12-25T08:50:58.037Z,70.16
2022-12-25T08:53:25.214Z,70.00
2022-12-25T08:56:06.137Z,69.94
2022-12-25T08:58:33.545Z,70.23
2022-12-25T09:01:00.479Z,69.46
2022-12-25T09:03:27.886Z,70.44
2022-12-25T09:05:55.293Z,70.29
2022-12-25T09:08:22.275Z,70.00
2022-12-25T09:10:49.381Z,69.69
2022-12-25T09:13:16.769Z,69.77
2022-12-25T09:15:43.677Z,69.31
2022-12-25T09:18:10.668Z,69.67
2022-12-25T09:20:37.479Z,69.73
2022-12-25T09:23:08.492Z,69.50
2022-12-25T09:25:38.585Z,68.87
2022-12-25T09:28:05.370Z,69.17
2022-12-25T09:30:32.147Z,69.25
2022-12-25T09:32:59.024Z,69.42
2022-12-25T09:35:26.005Z,68.84
2022-12-25T09:37:52.928Z,69.18
2022-12-25T09:40:21.639Z,69.49
2022-12-25T09:42:49.547Z,68.88
2022-12-25T09:45:38.615Z,69.38
2022-12-25T09:48:05.777Z,68.38
2022-12-25T09:50:42.712Z,68.65
2022-12-25T09:53:24.738Z,69.74
2022-12-25T09:56:16.742Z,69.87
2022-12-25T09:58:43.796Z,69.56
2022-12-25T10:01:36.204Z,69.65
2022-12-25T10:04:14.802Z,69.62
2022-12-25T10:07:06.717Z,69.57
2022-12-25T10:09:46.231Z,69.26
2022-12-25T10:12:36.796Z,69.28
2022-12-25T10:15:28.169Z,69.36
2022-12-25T10:18:32.071Z,69.64
2022-12-25T10:21:02.080Z,69.77
2022-12-25T10:23:40.693Z,69.53
2022-12-25T10:26:18.668Z,69.63
2022-12-25T10:28:49.500Z,69.46
2022-12-25T10:31:23.386Z,70.00
2022-12-25T10:33:52.756Z,69.88
2022-12-25T10:36:30.518Z,69.75
2022-12-25T10:38:57.755Z,70.08
2022-12-25T10:41:56.875Z,69.32
2022-12-25T10:44:27.228Z,69.31
2022-12-25T10:46:57.422Z,68.83
2022-12-25T10:49:28.368Z,69.41
2022-12-25T10:51:55.230Z,68.90
2022-12-25T10:54:35.073Z,68.71
2022-12-25T10:57:04.764Z,68.68
2022-12-25T10:59:35.880Z,68.36
2022-12-25T11:02:27.828Z,68.44
2022-12-25T11:05:14.799Z,68.90
2022-12-25T11:07:50.932Z,68.32
2022-12-25T11:10:39.130Z,67.64
2022-12-25T11:13:08.024Z,68.55
2022-12-25T11:15:34.991Z,68.64
2022-12-25T11:18:02.164Z,69.20
2022-12-25T11:20:29.998Z,68.91
2022-12-25T11:22:56.889Z,69.23
2022-12-25T11:25:26.582Z,69.31
2022-12-25T11:28:01.966Z,68.99
2022-12-25T11:30:30.895Z,69.08
2022-12-25T11:33:03.450Z,69.19
2022-12-25T11:35:45.897Z,69.72
2022-12-25T11:38:12.914Z,69.94
2022-12-25T11:40:48.748Z,69.59
2022-12-25T11:43:34.178Z,69.45
2022-12-25T11:46:23.731Z,69.63
2022-12-25T11:48:56.295Z,69.81
2022-12-25T11:51:39.711Z,69.56
2022-12-25T11:54:18.679Z,69.54
2022-12-25T11:56:45.500Z,69.08
2022-12-25T11:59:52.084Z,70.06
2022-12-25T12:02:46.807Z,70.05
2022-12-25T12:05:33.553Z,69.87
2022-12-25T12:08:03.453Z,69.25
2022-12-25T12:10:56.455Z,69.29
2022-12-25T12:13:35.288Z,69.31
2022-12-25T12:16:03.810Z,69.52
2022-12-25T12:18:32.833Z,69.92
2022-12-25T12:21:01.159Z,70.01
2022-12-25T12:23:30.173Z,70.68
2022-12-25T12:25:57.759Z,70.42
2022-12-25T12:28:28.326Z,70.85
2022-12-25T12:31:00.561Z,70.63
2022-12-25T12:33:32.126Z,70.53
2022-12-25T12:36:01.591Z,70.81
2022-12-25T12:38:29.141Z,70.82
2022-12-25T12:41:00.265Z,71.17
2022-12-25T12:43:51.593Z,70.90
2022-12-25T12:46:27.686Z,70.91
2022-12-25T12:49:20.175Z,70.54
2022-12-25T12:51:47.314Z,69.99
2022-12-25T12:54:23.124Z,70.11
2022-12-25T12:57:00.559Z,71.00
2022-12-25T12:59:37.082Z,71.00
2022-12-25T13:02:24.175Z,70.84
2022-12-25T13:04:59.073Z,71.17
2022-12-25T13:07:28.930Z,71.60
2022-12-25T13:09:58.737Z,71.32
2022-12-25T13:12:25.812Z,71.15
2022-12-25T13:14:53.013Z,71.08
2022-12-25T13:17:25.407Z,70.67
2022-12-25T13:19:55.770Z,70.15
2022-12-25T13:22:24.535Z,71.52
2022-12-25T13:25:05.062Z,71.33
2022-12-25T13:27:32.732Z,70.67
2022-12-25T13:30:00.001Z,70.80
2022-12-25T13:32:30.368Z,71.13
2022-12-25T13:34:58.521Z,71.87
2022-12-25T13:37:28.022Z,71.36
2022-12-25T13:39:56.924Z,70.71
2022-12-25T13:42:30.179Z,70.94
2022-12-25T13:45:07.578Z,71.54
2022-12-25T13:47:39.440Z,71.56
2022-12-25T13:50:31.180Z,71.36
2022-12-25T13:53:11.446Z,71.96
2022-12-25T13:55:38.597Z,71.03
2022-12-25T13:58:11.192Z,71.24
2022-12-25T14:00:48.799Z,71.76
2022-12-25T14:03:22.342Z,71.56
2022-12-25T14:06:00.205Z,71.71
2022-12-25T14:08:31.521Z,71.66
2022-12-25T14:11:03.643Z,71.06
2022-12-25T14:13:33.068Z,70.95
2022-12-25T14:16:00.739Z,70.78
2022-12-25T14:18:28.562Z,71.04
2022-12-25T14:21:05.687Z,71.53
2022-12-25T14:23:42.920Z,71.45
2022-12-25T14:26:21.733Z,71.44
2022-12-25T14:28:53.264Z,70.84
2022-12-25T14:31:21.185Z,70.93
2022-12-25T14:33:50.272Z,71.51
2022-12-25T14:36:17.491Z,70.93
2022-12-25T14:38:44.552Z,71.23
2022-12-25T14:41:33.436Z,71.07
2022-12-25T14:44:23.828Z,70.87
2022-12-25T14:46:50.975Z,71.25
2022-12-25T14:49:24.957Z,71.40
2022-12-25T14:51:51.968Z,71.27
2022-12-25T14:54:21.211Z,71.91
2022-12-25T14:56:50.361Z,71.79
2022-12-25T14:59:27.130Z,71.87
2022-12-25T15:02:02.945Z,71.67
2022-12-25T15:04:30.330Z,72.09
2022-12-25T15:07:01.492Z,71.85
2022-12-25T15:09:29.951Z,72.54
2022-12-25T15:11:57.179Z,71.75
2022-12-25T15:14:25.268Z,72.57
2022-12-25T15:16:58.771Z,72.57
2022-12-25T15:19:34.804Z,72.29
2022-12-25T15:22:04.120Z,72.32
2022-12-25T15:24:30.902Z,72.91
2022-12-25T15:27:00.242Z,72.50
2022-12-25T15:32:18.454Z,71.80
2022-12-25T15:34:47.170Z,71.87
2022-12-25T15:37:14.543Z,72.10
2022-12-25T15:39:41.748Z,72.36
2022-12-25T15:42:14.618Z,71.89
2022-12-25T15:44:42.424Z,72.33
2022-12-25T15:47:10.943Z,72.56
2022-12-25T15:49:37.963Z,72.89
2022-12-25T15:52:10.528Z,72.44
2022-12-25T15:54:37.276Z,72.71
2022-12-25T15:57:06.976Z,72.15
2022-12-25T15:59:34.193Z,72.26
2022-12-25T16:02:01.685Z,72.36
2022-12-25T16:04:31.351Z,72.58
2022-12-25T16:06:59.396Z,71.84
2022-12-25T16:09:27.485Z,72.27
2022-12-25T16:11:54.194Z,72.04
2022-12-25T16:14:21.844Z,72.21
2022-12-25T16:16:48.781Z,72.51
2022-12-25T16:19:15.660Z,72.51
2022-12-25T16:21:46.491Z,72.11
2022-12-25T16:24:14.144Z,71.84
2022-12-25T16:26:41.058Z,71.96
2022-12-25T16:29:08.050Z,72.23
2022-12-25T16:31:36.053Z,72.10
2022-12-25T16:34:04.219Z,72.11
2022-12-25T16:36:30.943Z,72.26
2022-12-25T16:38:57.765Z,72.39
2022-12-25T16:41:25.208Z,72.34
2022-12-25T16:43:52.048Z,72.26
2022-12-25T16:46:21.637Z,72.15
2022-12-25T16:48:48.736Z,72.21
2022-12-25T16:51:20.580Z,72.22
2022-12-25T16:53:48.176Z,72.42
2022-12-25T16:56:20.560Z,72.65
2022-12-25T16:58:54.812Z,72.61
2022-12-25T17:01:23.437Z,72.51
2022-12-25T17:03:51.340Z,73.03
2022-12-25T17:06:25.696Z,72.84
2022-12-25T17:08:57.317Z,72.77
2022-12-25T17:11:27.404Z,72.69
2022-12-25T17:13:54.558Z,73.25
2022-12-25T17:16:24.881Z,72.75
2022-12-25T17:19:04.586Z,72.08
2022-12-25T17:21:35.470Z,72.53
2022-12-25T17:24:04.137Z,72.20
2022-12-25T17:26:32.703Z,72.84
2022-12-25T17:29:00.318Z,73.40
2022-12-25T17:31:27.782Z,73.36
2022-12-25T17:33:54.902Z,73.34
2022-12-25T17:36:22.885Z,72.87
2022-12-25T17:38:50.126Z,73.03
2022-12-25T17:41:18.534Z,72.86
2022-12-25T17:43:46.103Z,72.45
2022-12-25T17:46:17.388Z,72.53
2022-12-25T17:48:44.694Z,72.97
2022-12-25T17:51:14.647Z,72.90
2022-12-25T17:53:43.677Z,72.65
2022-12-25T17:56:11.512Z,71.75
2022-12-25T17:58:39.169Z,72.75
2022-12-25T18:01:12.533Z,72.27
2022-12-25T18:03:40.029Z,72.61
2022-12-25T18:06:09.514Z,72.37
2022-12-25T18:08:39.504Z,72.71
2022-12-25T18:11:12.051Z,72.79
2022-12-25T18:13:40.648Z,73.17
2022-12-25T18:16:08.809Z,72.52
2022-12-25T18:18:36.494Z,72.02
2022-12-25T18:21:04.351Z,71.91
2022-12-25T18:23:31.928Z,72.13
2022-12-25T18:26:07.751Z,71.69
2022-12-25T18:28:36.138Z,72.22
2022-12-25T18:31:08.690Z,71.95
2022-12-25T18:33:36.628Z,72.50
2022-12-25T18:36:04.840Z,72.37
2022-12-25T18:38:32.939Z,72.24
2022-12-25T18:41:00.563Z,71.89
2022-12-25T18:43:53.583Z,72.31
2022-12-25T18:46:17.832Z,72.77
2022-12-25T18:48:45.409Z,72.91
2022-12-25T18:51:15.160Z,72.56
2022-12-25T18:53:42.876Z,72.88
2022-12-25T18:56:15.901Z,72.74
2022-12-25T18:58:43.807Z,73.04
2022-12-25T19:01:17.836Z,73.83
2022-12-25T19:03:46.061Z,73.30
2022-12-25T19:06:23.116Z,73.36
2022-12-25T19:08:50.251Z,74.01
2022-12-25T19:11:18.816Z,73.75
2022-12-25T19:13:45.998Z,73.71
2022-12-25T19:16:14.353Z,73.67
2022-12-25T19:18:43.756Z,73.68
2022-12-25T19:21:11.217Z,73.58
2022-12-25T19:23:39.468Z,73.80
2022-12-25T19:26:08.583Z,73.42
2022-12-25T19:28:37.163Z,73.92
2022-12-25T19:31:07.750Z,73.99
2022-12-25T19:33:35.732Z,73.53
2022-12-25T19:36:06.815Z,73.09
2022-12-25T19:38:34.859Z,73.43
2022-12-25T19:41:17.120Z,73.31
2022-12-25T19:43:47.835Z,73.77
2022-12-25T19:46:19.263Z,73.10
2022-12-25T19:48:47.372Z,73.60
2022-12-25T19:51:16.776Z,74.12
2022-12-25T19:53:45.085Z,73.41
2022-12-25T19:56:12.732Z,73.21
2022-12-25T19:58:40.300Z,73.38
2022-12-25T20:01:10.863Z,73.63
2022-12-25T20:03:46.803Z,73.62
2022-12-25T20:06:22.001Z,73.28
2022-12-25T20:08:50.955Z,73.85
2022-12-25T20:11:18.327Z,74.10
2022-12-25T20:13:45.657Z,73.78
2022-12-25T20:16:13.261Z,74.22
2022-12-25T20:18:41.001Z,74.21
2022-12-25T20:21:14.264Z,73.66
2022-12-25T20:23:42.599Z,73.73
2022-12-25T20:26:13.595Z,73.42
2022-12-25T20:28:41.990Z,73.33
2022-12-25T20:31:17.121Z,73.95
2022-12-25T20:33:45.341Z,74.79
2022-12-25T20:36:12.864Z,74.49
2022-12-25T20:38:40.464Z,74.34
2022-12-25T20:41:28.508Z,74.25
2022-12-25T20:43:56.915Z,74.36
2022-12-25T20:46:24.843Z,74.82
2022-12-25T20:48:52.901Z,74.46
2022-12-25T20:51:22.866Z,73.63
2022-12-25T20:53:50.519Z,73.54
2022-12-25T20:56:19.590Z,74.65
2022-12-25T20:58:46.533Z,74.32
2022-12-25T21:01:17.318Z,73.77
2022-12-25T21:03:45.217Z,73.55
2022-12-25T21:06:12.936Z,74.23
2022-12-25T21:08:41.111Z,74.57
2022-12-25T21:11:09.283Z,74.64
2022-12-25T21:13:42.958Z,73.87
2022-12-25T21:16:12.392Z,75.09
2022-12-25T21:18:39.316Z,75.37
2022-12-25T21:21:07.546Z,74.06
2022-12-25T21:23:37.086Z,73.79
2022-12-25T21:26:22.391Z,74.49
2022-12-25T21:28:52.733Z,74.76
2022-12-25T21:31:21.026Z,75.34
2022-12-25T21:33:52.817Z,74.42
2022-12-25T21:36:29.232Z,74.85
2022-12-25T21:39:05.664Z,75.58
2022-12-25T21:41:34.343Z,75.02
2022-12-25T21:44:01.406Z,74.97
2022-12-25T21:46:29.084Z,74.55
2022-12-25T21:48:56.674Z,75.28
2022-12-25T21:51:44.170Z,75.23
2022-12-25T21:54:12.812Z,74.64
2022-12-25T21:56:44.939Z,74.13
2022-12-25T21:59:17.999Z,74.90
2022-12-25T22:01:45.955Z,75.07
2022-12-25T22:04:14.625Z,75.39
2022-12-25T22:07:01.755Z,74.71
2022-12-25T22:09:28.911Z,75.22
2022-12-25T22:12:15.979Z,75.29
2022-12-25T22:14:57.136Z,75.56
2022-12-25T22:17:45.959Z,75.20
2022-12-25T22:20:24.534Z,75.30
2022-12-25T22:22:51.693Z,75.14
2022-12-25T22:25:19.032Z,75.46
2022-12-25T22:27:47.258Z,75.25
2022-12-25T22:30:22.926Z,75.74
2022-12-25T22:32:52.010Z,76.21
2022-12-25T22:35:20.109Z,75.62
2022-12-25T22:37:48.215Z,75.31
2022-12-25T22:40:17.500Z,76.34
2022-12-25T22:42:44.652Z,75.71
2022-12-25T22:45:12.517Z,75.56
2022-12-25T22:47:39.745Z,76.42
2022-12-25T22:50:07.353Z,76.09
2022-12-25T22:52:34.177Z,76.50
2022-12-25T22:55:02.412Z,76.82
2022-12-25T22:57:29.417Z,76.28
2022-12-25T22:59:56.222Z,76.10
2022-12-25T23:02:23.498Z,76.62
2022-12-25T23:04:51.774Z,76.37
2022-12-25T23:07:18.520Z,76.85
2022-12-25T23:09:45.436Z,77.26
2022-12-25T23:12:32.295Z,76.70
2022-12-25T23:14:59.237Z,76.97
2022-12-25T23:17:45.088Z,77.38
2022-12-25T23:20:33.595Z,77.52
2022-12-25T23:23:19.640Z,76.75
2022-12-25T23:26:05.227Z,76.32
2022-12-25T23:28:50.791Z,76.22
2022-12-25T23:31:18.024Z,75.90
2022-12-25T23:33:44.990Z,76.13
2022-12-25T23:36:11.857Z,76.31
2022-12-25T23:38:38.786Z,76.18
2022-12-25T23:41:05.699Z,76.95
2022-12-25T23:43:32.620Z,76.75
2022-12-25T23:45:59.471Z,76.90
2022-12-25T23:48:26.410Z,77.04
2022-12-25T23:50:53.320Z,76.83
2022-12-25T23:53:20.189Z,76.71
2022-12-25T23:55:53.311Z,76.84
2022-12-25T23:58:22.413Z,77.83
